Airfield :
LOGIN :

Register | Disclaimer

   EN    FR    IT 

 










Legend :    VFR   Marginal VFR   IFR   Intensive IFR   Very Intensive IFR
Visi :
Ceiling :
>= 8 km
>= 3000ft
5 to 8 km
1000 to 3000 ft
1500m to 5 km
500 to 1000 ft
800 to 1500m
200 to 500 ft
< 800m
< 200 ft
Symbols :   Thunderstorms  Fog  Heavy snow  Heavy precipitations  Wind > 20 kt
SIGMETs :     Misc.  Thunderstorms  Icing  Turbulence  Mountain Waves  Volcanic Ashes







- Airport Elevation : 459 ft
- IATA code : CER
- Download approach charts


LFRC - Cherbourg / Maupertus

CURRENT METAR :
  • 211700Z AUTO 34004KT 290V030 CAVOK 20/13 Q1016 NOSIG

EXPIRED METARs :
  • 211630Z AUTO 35006KT 290V060 CAVOK 21/14 Q1016 NOSIG
  • 211600Z AUTO 33005KT 280V020 CAVOK 20/14 Q1016 NOSIG
  • 211530Z AUTO 36007KT 280V040 9999 FEW019 20/14 Q1016 NOSIG
  • 211500Z AUTO 35006KT 290V060 CAVOK 21/14 Q1016 NOSIG
  • 211430Z AUTO 35005KT 280V030 CAVOK 21/14 Q1016 NOSIG

TAF TAF LFRC
Valid from the 21 at 15:00 until the 22 at 00:00 UTC


211400Z 2115/2124 35010KT 9999 SCT020
No reported NOTAMs for that airfield.



MET'MAP, your aeronautical weather chart ! - Copyright ORBIFLY December 2007 - Disclaimer

ORBIFLY MET'MAP TEAM :

Programming & Development : Alexandra Zaïnal
Concept & Development : Baudouin d'Aumeries
Co-Development & Prog : Marc-Olivier Méhu
Technical & hardware support : Manuel Goepfert

Contact : metmap@orbifly.com




SOURCES & CREDITS :

   NOAA